Rochelle, IL

5:42 PM CST on February 09, 2016 (GMT -0600)
Rochelle

Weather History for KRPJ - April, 2013

Change the Weather History Date:

Tuesday, April 2, 2013

  Actual Average (KRFD) Record (KRFD)
Temperature  
Mean Temperature 32 °F 44 °F  
Max Temperature 42 °F 55 °F 80 °F (1963)
Min Temperature 23 °F 33 °F 19 °F (1926)
Degree Days  
Heating Degree Days 32 21  
Month to date heating degree days 42  
Since 1 July heating degree days 5906  
Cooling Degree Days 0 0  
Month to date cooling degree days 0  
Year to date cooling degree days 0  
Moisture  
Dew Point 18 °F    
Average Humidity 60    
Maximum Humidity 85    
Minimum Humidity 34    
Precipitation  
Precipitation 0.00 in 0.11 in 1.71 in (1983)
Month to date precipitation 0.21  
Year to date precipitation 5.31  
Snow  
Snow 0.00 in 0.10 in 4.60 in (1975)
Month to date snowfall 0.2  
Since 1 July snowfall 36.0  
Snow Depth -    
Sea Level Pressure  
Sea Level Pressure 30.26 in    
Wind  
Wind Speed 8 mph (WNW)    
Max Wind Speed 21 mph    
Max Gust Speed 24 mph    
Visibility 10 miles    
Events      
T = Trace of Precipitation, MM = Missing Value Source: NWS Daily Summary

Daily Weather History Graph

Daily Weather History Graph

Search for Another Location

Airport or City:

Trip Planner

Search our weather history database for the weather conditions in past years. The results will help you decide how hot, cold, wet, or windy it might be!

Date:

Astronomy

Apr. 02, 2013 Rise Set
Actual Time 6:36 AM CDT 7:23 PM CDT
Civil Twilight 6:08 AM CDT 7:51 PM CDT
Nautical Twilight 5:35 AM CDT 8:25 PM CDT
Astronomical Twilight 5:00 AM CDT 8:59 PM CDT
Moon 1:31 AM CDT (4/2) 11:24 AM CDT (4/2)
Length of Visible Light 13h 42m
Length of Day
12h 46m
Waning Gibbous, 55% of the Moon is Illuminated
Apr 2
Waning Gibbous
Apr 2
Last Quarter
Apr 10
New
Apr 18
First Quarter
Apr 25
Full

Hourly Weather History & Observations

Time (CDT) Temp. Windchill Dew Point Humidity Pressure Visibility Wind Dir Wind Speed Gust Speed Precip Events Conditions
12:15 AM 27.9 °F 19.1 °F 18.5 °F 68% 30.21 in 10.0 mi NW 9.2 mph - N/A   Clear
12:35 AM 27.5 °F 19.3 °F 18.9 °F 70% 30.21 in 10.0 mi NW 8.1 mph - N/A   Clear
12:55 AM 27.0 °F 19.5 °F 18.5 °F 70% 30.22 in 10.0 mi NW 6.9 mph - N/A   Clear
1:15 AM 26.4 °F 19.8 °F 18.5 °F 72% 30.22 in 10.0 mi NW 5.8 mph - N/A   Clear
1:35 AM 26.4 °F 18.9 °F 18.3 °F 71% 30.23 in 10.0 mi WNW 6.9 mph - N/A   Clear
1:55 AM 24.8 °F 16.9 °F 20.1 °F 82% 30.23 in 10.0 mi West 6.9 mph - N/A   Clear
2:15 AM 24.4 °F 16.5 °F 20.3 °F 84% 30.23 in 10.0 mi WNW 6.9 mph - N/A   Clear
2:35 AM 25.7 °F 18.0 °F 20.3 °F 80% 30.22 in 10.0 mi WNW 6.9 mph - N/A   Clear
2:55 AM 25.2 °F 17.3 °F 20.5 °F 82% 30.22 in 10.0 mi WNW 6.9 mph - N/A   Clear
3:15 AM 25.3 °F 18.5 °F 20.3 °F 81% 30.22 in 10.0 mi West 5.8 mph - N/A   Clear
3:35 AM 24.6 °F 16.7 °F 20.3 °F 84% 30.22 in 10.0 mi West 6.9 mph - N/A   Clear
3:55 AM 24.8 °F 16.1 °F 20.7 °F 84% 30.23 in 10.0 mi WNW 8.1 mph - N/A   Clear
4:15 AM 24.8 °F 16.9 °F 20.1 °F 82% 30.23 in 10.0 mi WNW 6.9 mph - N/A   Clear
4:35 AM 24.6 °F 16.7 °F 19.9 °F 82% 30.23 in 10.0 mi WNW 6.9 mph - N/A   Clear
4:55 AM 23.9 °F 15.8 °F 19.9 °F 85% 30.24 in 10.0 mi WNW 6.9 mph - N/A   Clear
5:15 AM 23.9 °F 15.8 °F 20.1 °F 85% 30.24 in 10.0 mi WNW 6.9 mph - N/A   Clear
5:35 AM 23.9 °F 15.0 °F 19.9 °F 85% 30.24 in 10.0 mi WNW 8.1 mph - N/A   Clear
5:55 AM 24.8 °F 16.9 °F 19.6 °F 81% 30.24 in 10.0 mi WNW 6.9 mph - N/A   Clear
6:15 AM 23.9 °F 15.8 °F 19.8 °F 84% 30.24 in 10.0 mi NW 6.9 mph - N/A   Clear
6:35 AM 23.9 °F 18.0 °F 19.4 °F 83% 30.25 in 10.0 mi NW 4.6 mph - N/A   Clear
6:55 AM 23.9 °F 19.5 °F 19.8 °F 84% 30.26 in 10.0 mi WNW 3.5 mph - N/A   Clear
7:15 AM 24.8 °F 20.5 °F 20.1 °F 82% 30.26 in 10.0 mi NW 3.5 mph - N/A   Clear
7:35 AM 26.4 °F 19.8 °F 21.2 °F 81% 30.27 in 10.0 mi WNW 5.8 mph - N/A   Clear
7:55 AM 27.3 °F 19.9 °F 21.0 °F 77% 30.28 in 10.0 mi WNW 6.9 mph - N/A   Clear
8:15 AM 28.8 °F 21.7 °F 21.2 °F 73% 30.29 in 10.0 mi WNW 6.9 mph - N/A   Clear
8:35 AM 29.8 °F 22.2 °F 20.8 °F 69% 30.29 in 10.0 mi WNW 8.1 mph - N/A   Clear
8:55 AM 30.4 °F 22.2 °F 19.6 °F 64% 30.29 in 10.0 mi NNW 9.2 mph - N/A   Clear
9:15 AM 31.6 °F 24.4 °F 19.4 °F 61% 30.28 in 10.0 mi NW 8.1 mph - N/A   Clear
9:35 AM 32.0 °F 24.8 °F 19.2 °F 59% 30.29 in 10.0 mi WNW 8.1 mph - N/A   Clear
9:55 AM 32.9 °F 25.9 °F 19.6 °F 58% 30.29 in 10.0 mi WNW 8.1 mph - N/A   Clear
10:15 AM 33.6 °F 27.5 °F 18.9 °F 55% 30.29 in 10.0 mi WNW 6.9 mph - N/A   Clear
10:35 AM 34.7 °F 28.1 °F 17.6 °F 50% 30.29 in 10.0 mi West 8.1 mph - N/A   Clear
10:55 AM 35.6 °F 28.0 °F 16.3 °F 46% 30.29 in 10.0 mi West 10.4 mph 18.4 mph N/A   Clear
11:15 AM 36.7 °F 28.4 °F 16.7 °F 44% 30.29 in 10.0 mi WNW 12.7 mph 21.9 mph N/A   Clear
11:35 AM 37.2 °F 28.3 °F 16.2 °F 42% 30.29 in 10.0 mi WNW 15.0 mph 19.6 mph N/A   Clear
11:55 AM 37.6 °F 30.5 °F 13.6 °F 38% 30.28 in 10.0 mi NW 10.4 mph - N/A   Clear
12:15 PM 38.1 °F 31.2 °F 15.6 °F 40% 30.27 in 10.0 mi West 10.4 mph 19.6 mph N/A   Clear
12:35 PM 38.3 °F 30.5 °F 13.1 °F 36% 30.27 in 10.0 mi West 12.7 mph 19.6 mph N/A   Clear
12:55 PM 39.2 °F 33.0 °F 13.8 °F 36% 30.27 in 10.0 mi WNW 9.2 mph 20.7 mph N/A   Clear
1:15 PM 39.7 °F 31.5 °F 14.2 °F 35% 30.26 in 10.0 mi West 15.0 mph 20.7 mph N/A   Clear
1:35 PM 39.9 °F 31.4 °F 16.2 °F 38% 30.26 in 10.0 mi West 16.1 mph 20.7 mph N/A   Clear
1:55 PM 40.6 °F 32.3 °F 17.1 °F 39% 30.25 in 10.0 mi West 16.1 mph 23.0 mph N/A   Clear
2:15 PM 40.5 °F 32.1 °F 16.2 °F 37% 30.25 in 10.0 mi West 16.1 mph - N/A   Clear
2:35 PM 41.4 °F 35.7 °F 15.1 °F 35% 30.25 in 10.0 mi West 9.2 mph 23.0 mph N/A   Scattered Clouds
2:55 PM 41.0 °F 31.6 °F 19.0 °F 41% 30.24 in 10.0 mi West 20.7 mph 24.2 mph N/A   Scattered Clouds
3:15 PM 41.2 °F 33.0 °F 16.7 °F 37% 30.24 in 10.0 mi West 16.1 mph 21.9 mph N/A   Scattered Clouds
3:35 PM 42.4 °F 34.7 °F 18.1 °F 38% 30.23 in 10.0 mi West 16.1 mph 19.6 mph N/A   Mostly Cloudy
3:55 PM 41.7 °F 33.4 °F 16.9 °F 37% 30.24 in 10.0 mi WNW 17.3 mph 24.2 mph N/A   Mostly Cloudy
4:15 PM 41.9 °F 36.3 °F 16.5 °F 36% 30.24 in 10.0 mi WNW 9.2 mph 20.7 mph N/A   Mostly Cloudy
4:35 PM 41.5 °F 35.4 °F 15.1 °F 34% 30.24 in 10.0 mi WNW 10.4 mph 19.6 mph N/A   Mostly Cloudy
4:55 PM 41.0 °F 33.1 °F 16.2 °F 37% 30.24 in 10.0 mi WNW 15.0 mph 19.6 mph N/A   Mostly Cloudy
5:15 PM 41.9 °F 33.7 °F 16.3 °F 36% 30.24 in 10.0 mi WNW 17.3 mph 21.9 mph N/A   Mostly Cloudy
5:35 PM 40.3 °F 35.5 °F 13.8 °F 34% 30.24 in 10.0 mi NW 6.9 mph - N/A   Overcast
5:55 PM 40.5 °F 34.1 °F 15.6 °F 37% 30.24 in 10.0 mi NW 10.4 mph - N/A   Mostly Cloudy
6:15 PM 40.3 °F 33.9 °F 16.0 °F 37% 30.24 in 10.0 mi NW 10.4 mph - N/A   Scattered Clouds
6:35 PM 39.2 °F 32.5 °F 16.9 °F 40% 30.25 in 10.0 mi NW 10.4 mph - N/A   Clear
6:55 PM 38.3 °F 31.4 °F 18.1 °F 44% 30.25 in 10.0 mi NNW 10.4 mph - N/A   Scattered Clouds
7:15 PM 37.0 °F 30.4 °F 18.7 °F 48% 30.26 in 10.0 mi NNW 9.2 mph - N/A   Scattered Clouds
7:35 PM 35.4 °F 28.4 °F 19.8 °F 53% 30.26 in 10.0 mi NNW 9.2 mph - N/A   Clear
7:55 PM 34.5 °F 28.6 °F 19.4 °F 54% 30.27 in 10.0 mi NNW 6.9 mph - N/A   Clear
8:15 PM 32.9 °F 27.5 °F 19.6 °F 58% 30.27 in 10.0 mi NNW 5.8 mph - N/A   Clear
8:35 PM 32.2 °F 27.7 °F 20.1 °F 61% 30.28 in 10.0 mi NW 4.6 mph - N/A   Clear
8:55 PM 32.0 °F 26.4 °F 20.1 °F 62% 30.29 in 10.0 mi NW 5.8 mph - N/A   Clear
9:15 PM 32.0 °F 24.8 °F 20.1 °F 62% 30.29 in 10.0 mi NNW 8.1 mph - N/A   Clear
9:35 PM 32.0 °F 26.4 °F 19.9 °F 61% 30.30 in 10.0 mi NNW 5.8 mph - N/A   Clear
9:55 PM 32.0 °F 24.8 °F 19.2 °F 59% 30.30 in 10.0 mi NNW 8.1 mph - N/A   Clear
10:15 PM 31.1 °F 25.4 °F 19.0 °F 61% 30.31 in 10.0 mi NNW 5.8 mph - N/A   Clear
10:35 PM 29.1 °F 23.0 °F 21.2 °F 72% 30.31 in 10.0 mi NNW 5.8 mph - N/A   Clear
10:55 PM 29.8 °F 23.9 °F 21.0 °F 70% 30.31 in 10.0 mi NNW 5.8 mph - N/A   Clear
11:35 PM 28.0 °F 21.7 °F 21.2 °F 76% 30.31 in 10.0 mi North 5.8 mph - N/A   Clear
11:55 PM 27.5 °F 21.1 °F 21.7 °F 79% 30.32 in 10.0 mi North 5.8 mph - N/A   Clear